Time;durP1;ratioP1;P1;durP2;ratioP2;P2;SDS_P1;SDS_P2;PMS_P1;PMS_P2;Temp;Humidity;BMP_temperature;BMP_pressure;BME280_temperature;BME280_humidity;BME280_pressure;Samples;Min_cycle;Max_cycle;Signal;HPM_P1;HPM_P2
2022/01/28 00:06:20;;;;;;;6.95;2.60;;;;;;;6.00;82.38;99778.05;2912881;81;21055;-70
2022/01/28 00:10:24;;;;;;;3.67;1.98;;;;;;;5.95;83.43;99778.85;3007997;79;21025;-70
2022/01/28 00:14:33;;;;;;;3.60;2.65;;;;;;;5.92;84.55;99797.55;2976029;80;21010;-71
2022/01/28 00:39:46;;;;;;;2.72;0.95;;;;;;;3.96;94.03;99832.70;2955162;80;21018;-73
2022/01/28 00:43:48;;;;;;;2.33;1.17;;;;;;;3.86;94.06;99783.25;2923165;81;21010;-72
2022/01/28 00:47:49;;;;;;;4.37;1.98;;;;;;;3.97;93.23;99817.28;2923219;80;21017;-72
2022/01/28 00:51:51;;;;;;;4.22;1.60;;;;;;;4.24;92.24;99813.85;2954523;79;20950;-71
2022/01/28 00:55:57;;;;;;;22.00;2.72;;;;;;;4.45;91.53;99810.80;2923387;81;21100;-72
2022/01/28 00:59:59;;;;;;;2.83;1.45;;;;;;;4.75;90.39;99800.06;2923429;80;21022;-70
2022/01/28 01:04:01;;;;;;;3.37;2.90;;;;;;;4.94;89.24;99801.03;2945399;81;21001;-71
2022/01/28 01:08:04;;;;;;;7.25;1.75;;;;;;;5.14;87.66;99797.05;2945612;81;20997;-70
2022/01/28 01:12:07;;;;;;;3.80;1.75;;;;;;;5.23;85.37;99778.45;2945447;81;21017;-72
2022/01/28 01:16:12;;;;;;;7.62;2.47;;;;;;;5.33;84.61;99782.63;2945669;81;20990;-71
2022/01/28 01:24:22;;;;;;;8.53;2.90;;;;;;;5.53;82.01;99781.27;2945714;80;21002;-72
2022/01/28 01:28:29;;;;;;;1.75;1.52;;;;;;;5.62;81.57;99764.42;2945260;80;21061;-71
2022/01/28 01:32:27;;;;;;;1.57;1.17;;;;;;;5.66;79.83;99772.03;2944932;81;21005;-71
2022/01/28 01:36:28;;;;;;;4.12;2.05;;;;;;;5.66;78.07;99751.38;2945812;81;21001;-70
2022/01/28 01:40:35;;;;;;;2.40;1.27;;;;;;;5.77;77.69;99748.84;2946058;81;21006;-70
2022/01/28 01:53:04;;;;;;;3.33;1.98;;;;;;;5.81;78.92;99783.30;2945736;81;21060;-71
2022/01/28 01:57:09;;;;;;;5.90;3.00;;;;;;;5.85;79.08;99776.84;2945830;81;21088;-71
2022/01/28 02:01:11;;;;;;;3.07;1.40;;;;;;;5.85;78.92;99787.41;2949427;80;21030;-70
2022/01/28 02:05:13;;;;;;;8.83;2.47;;;;;;;5.73;78.19;99781.69;2957924;80;21056;-70
2022/01/28 02:09:15;;;;;;;2.55;1.07;;;;;;;5.83;78.15;99773.47;2957808;80;21282;-70
2022/01/28 02:13:17;;;;;;;4.33;1.47;;;;;;;5.84;77.43;99772.52;2957661;80;21025;-70
2022/01/28 02:17:18;;;;;;;5.00;1.70;;;;;;;5.84;76.56;99775.16;2957870;80;20966;-70
2022/01/28 02:21:20;;;;;;;5.40;1.27;;;;;;;5.93;75.87;99764.42;2957917;80;21037;-70
2022/01/28 02:25:29;;;;;;;9.63;2.55;;;;;;;5.94;75.70;99803.08;2957998;80;20989;-70
2022/01/28 02:29:34;;;;;;;10.48;2.62;;;;;;;5.85;76.45;99801.92;2957741;80;21025;-70
2022/01/28 02:33:35;;;;;;;4.45;1.85;;;;;;;5.71;75.77;99784.91;3022171;79;20991;-70
2022/01/28 02:37:37;;;;;;;3.20;1.77;;;;;;;5.79;77.40;99805.00;3022510;79;20943;-70
2022/01/28 02:41:43;;;;;;;6.72;2.10;;;;;;;5.68;77.93;99817.63;3022360;79;21026;-70
2022/01/28 02:45:44;;;;;;;4.40;2.62;;;;;;;5.69;78.00;99770.95;3021976;79;20979;-70
2022/01/28 02:49:46;;;;;;;9.85;2.50;;;;;;;5.69;79.12;99830.33;3022425;79;20975;-70
2022/01/28 02:53:53;;;;;;;4.47;1.65;;;;;;;5.75;79.14;99821.15;3022316;79;20994;-70
2022/01/28 02:58:03;;;;;;;4.70;1.75;;;;;;;5.53;79.53;99824.80;3063083;77;21043;-70
2022/01/28 03:01:55;;;;;;;3.87;2.25;;;;;;;5.67;80.04;99830.91;3070221;77;21022;-70
2022/01/28 03:05:57;;;;;;;11.53;2.67;;;;;;;5.64;79.69;99833.77;3065306;77;21006;-70
2022/01/28 03:18:22;;;;;;;5.10;2.15;;;;;;;5.67;79.65;99850.24;3065148;77;21413;-70
2022/01/28 03:22:18;;;;;;;3.33;1.95;;;;;;;5.60;79.58;99845.48;3062736;77;20987;-70
2022/01/28 03:26:21;;;;;;;6.95;2.50;;;;;;;5.62;79.67;99849.72;3065295;77;21005;-70
2022/01/28 03:30:23;;;;;;;9.48;2.95;;;;;;;5.56;80.43;99871.22;3064938;77;21532;-70
2022/01/28 03:34:25;;;;;;;8.85;2.65;;;;;;;5.67;80.52;99877.09;3064786;77;21000;-71
2022/01/28 03:38:27;;;;;;;6.25;2.98;;;;;;;5.59;80.93;99873.65;3065005;77;20935;-71
2022/01/28 03:42:28;;;;;;;4.70;1.98;;;;;;;5.57;81.42;99883.01;3065176;77;20919;-70
2022/01/28 03:46:30;;;;;;;6.72;2.25;;;;;;;5.62;81.51;99881.84;3065472;77;21561;-70
2022/01/28 03:50:34;;;;;;;6.90;2.30;;;;;;;5.55;81.96;99890.64;3065338;77;20928;-71
2022/01/28 03:54:36;;;;;;;4.03;2.30;;;;;;;5.66;82.08;99908.39;3064431;77;21499;-70
2022/01/28 03:58:37;;;;;;;5.40;1.90;;;;;;;5.61;82.40;99916.64;3065357;77;20971;-70
2022/01/28 04:02:42;;;;;;;7.40;2.20;;;;;;;5.46;83.17;99925.08;3064505;76;20951;-78
2022/01/28 04:15:35;;;;;;;4.40;1.20;;;;;;;5.21;85.13;99949.12;3064915;77;20987;-70
2022/01/28 04:19:24;;;;;;;5.47;2.35;;;;;;;5.13;85.11;99944.34;3062132;77;21026;-69
2022/01/28 04:23:26;;;;;;;5.35;2.83;;;;;;;4.99;84.89;99973.37;3064746;77;20908;-68
2022/01/28 04:27:28;;;;;;;8.50;3.60;;;;;;;4.82;86.75;99974.45;3064868;77;20987;-68
2022/01/28 04:31:29;;;;;;;4.75;1.90;;;;;;;4.80;87.41;99967.94;3065039;77;20951;-68
2022/01/28 04:35:31;;;;;;;15.95;4.22;;;;;;;4.63;87.53;99965.55;3064585;77;21057;-68
2022/01/28 04:43:41;;;;;;;14.63;2.40;;;;;;;4.63;88.67;99976.08;3064718;77;21599;-68
2022/01/28 04:47:47;;;;;;;2.52;2.22;;;;;;;4.65;88.84;99988.20;3063818;77;21018;-68
2022/01/28 05:00:35;;;;;;;9.53;3.27;;;;;;;4.64;86.47;99965.43;3036522;77;21039;-68
2022/01/28 05:13:45;;;;;;;12.10;3.17;;;;;;;4.83;82.83;99953.28;3064565;77;20993;-71
2022/01/28 05:29:18;;;;;;;8.73;2.52;;;;;;;4.83;80.52;99987.55;3064388;77;20955;-73
2022/01/28 05:33:20;;;;;;;6.10;2.95;;;;;;;4.75;80.82;99967.39;3064327;77;21053;-69
2022/01/28 05:37:22;;;;;;;9.03;3.30;;;;;;;4.70;80.50;99983.48;3064319;77;20966;-71
2022/01/28 05:41:23;;;;;;;5.75;1.80;;;;;;;4.75;80.49;99977.11;3064073;77;20978;-71
2022/01/28 05:45:26;;;;;;;6.97;2.05;;;;;;;4.81;80.95;100017.55;3063660;77;21574;-70
2022/01/28 05:49:27;;;;;;;10.72;3.17;;;;;;;4.91;81.30;100040.23;3035949;77;20959;-71
2022/01/28 05:53:29;;;;;;;7.33;3.62;;;;;;;4.87;81.26;100036.94;3064237;77;21007;-71
2022/01/28 05:57:31;;;;;;;5.42;3.02;;;;;;;4.84;80.83;100026.13;3064564;77;21006;-70
2022/01/28 06:01:33;;;;;;;9.80;3.22;;;;;;;4.85;80.59;100057.27;3064060;77;21015;-71
2022/01/28 06:05:34;;;;;;;13.68;3.22;;;;;;;4.88;80.46;100068.11;3064026;77;21053;-71
2022/01/28 06:09:36;;;;;;;13.43;3.83;;;;;;;4.83;80.72;100097.38;3064149;77;20971;-70
2022/01/28 06:13:37;;;;;;;10.85;3.33;;;;;;;4.84;80.82;100077.98;3064310;77;21041;-71
2022/01/28 06:17:40;;;;;;;16.02;2.75;;;;;;;4.86;81.04;100108.59;3064679;77;20983;-71
2022/01/28 06:21:41;;;;;;;9.45;2.95;;;;;;;4.80;81.73;100090.98;3064350;76;21038;-70
2022/01/28 06:25:44;;;;;;;7.55;1.92;;;;;;;4.79;81.95;100084.02;3064217;77;21026;-70
2022/01/28 06:29:46;;;;;;;4.97;2.87;;;;;;;4.73;82.91;100114.21;3064310;77;20992;-70
2022/01/28 06:33:47;;;;;;;10.72;2.80;;;;;;;4.76;83.58;100141.69;3064603;77;20991;-70
2022/01/28 06:37:49;;;;;;;11.48;3.10;;;;;;;4.69;83.39;100120.61;3064678;77;21010;-71
2022/01/28 06:41:51;;;;;;;7.42;3.00;;;;;;;4.64;83.93;100136.69;3064393;77;21007;-70
2022/01/28 06:45:52;;;;;;;13.60;3.70;;;;;;;4.68;84.23;100122.88;3064495;77;20995;-71
2022/01/28 06:49:54;;;;;;;9.08;2.75;;;;;;;4.63;84.08;100130.21;3063661;77;21038;-70
2022/01/28 06:53:55;;;;;;;11.60;3.20;;;;;;;4.74;83.81;100104.05;3064269;77;21058;-70
2022/01/28 06:57:57;;;;;;;4.00;2.10;;;;;;;4.74;83.27;100142.75;3064616;77;20974;-70
2022/01/28 07:01:59;;;;;;;8.43;3.37;;;;;;;4.76;82.81;100144.81;3065942;77;21015;-71
2022/01/28 07:06:00;;;;;;;11.73;4.30;;;;;;;4.78;82.90;100144.25;3076914;77;21003;-70
2022/01/28 07:10:03;;;;;;;7.55;3.95;;;;;;;4.80;81.74;100147.64;3076769;77;20987;-70
2022/01/28 07:14:05;;;;;;;8.45;2.35;;;;;;;4.92;82.07;100142.95;3077303;77;21007;-70
2022/01/28 07:18:06;;;;;;;8.68;3.00;;;;;;;4.87;81.51;100131.82;3077501;77;20983;-71
2022/01/28 07:22:08;;;;;;;19.52;3.08;;;;;;;4.91;81.00;100134.64;3077164;77;20961;-70
2022/01/28 07:26:10;;;;;;;5.17;2.65;;;;;;;4.89;80.97;100127.30;3076909;77;20991;-70
2022/01/28 07:30:13;;;;;;;12.88;2.90;;;;;;;4.94;81.50;100152.07;3076847;77;20968;-70
2022/01/28 07:34:15;;;;;;;8.43;3.02;;;;;;;4.93;81.25;100138.06;3077055;77;21524;-70
2022/01/28 07:38:16;;;;;;;8.80;2.05;;;;;;;4.93;81.63;100165.73;3077403;77;20991;-70
2022/01/28 07:42:18;;;;;;;5.12;2.77;;;;;;;4.97;81.86;100136.06;3076864;76;20968;-71
2022/01/28 07:46:20;;;;;;;16.37;4.45;;;;;;;5.01;82.29;100183.70;3076687;77;20987;-70
2022/01/28 07:50:21;;;;;;;6.15;2.65;;;;;;;4.99;83.12;100213.27;3076519;77;20964;-70
2022/01/28 07:54:23;;;;;;;6.87;2.55;;;;;;;4.93;82.71;100193.42;3076694;77;21015;-69
2022/01/28 07:58:25;;;;;;;14.40;3.62;;;;;;;4.85;82.26;100209.69;3077070;77;21473;-69
2022/01/28 08:02:27;;;;;;;5.87;3.12;;;;;;;4.92;82.36;100211.95;3041128;77;21543;-70
2022/01/28 08:06:30;;;;;;;11.95;3.05;;;;;;;4.90;83.57;100231.80;3064226;77;20983;-70
2022/01/28 08:10:32;;;;;;;19.48;5.78;;;;;;;4.79;84.26;100235.55;3063978;77;21050;-70
2022/01/28 08:14:34;;;;;;;8.68;4.55;;;;;;;4.79;84.50;100258.78;3064269;77;21050;-69
2022/01/28 08:18:35;;;;;;;15.78;3.33;;;;;;;4.79;84.12;100267.17;3064575;77;20998;-69
2022/01/28 08:22:49;;;;;;;9.48;3.47;;;;;;;4.89;83.86;100267.00;3063985;77;20979;-70
2022/01/28 08:26:51;;;;;;;7.15;3.10;;;;;;;4.98;83.15;100256.39;3064563;77;21037;-70
2022/01/28 08:30:53;;;;;;;7.83;2.22;;;;;;;4.97;83.08;100255.55;3064516;76;21446;-70
2022/01/28 08:34:55;;;;;;;9.68;3.12;;;;;;;4.96;83.30;100278.04;3064502;77;20927;-70
2022/01/28 08:38:57;;;;;;;10.48;3.98;;;;;;;4.96;82.79;100268.36;3064628;77;20955;-70
2022/01/28 08:42:58;;;;;;;15.10;3.87;;;;;;;5.08;83.28;100311.61;3064627;77;20975;-70
2022/01/28 08:47:00;;;;;;;10.40;3.10;;;;;;;5.10;82.94;100298.31;3064696;77;20939;-71
2022/01/28 08:51:02;;;;;;;22.42;4.83;;;;;;;5.11;83.54;100347.02;3064602;77;20975;-70
2022/01/28 08:55:05;;;;;;;12.05;3.47;;;;;;;5.05;83.74;100336.84;3064066;77;21009;-70
2022/01/28 08:59:06;;;;;;;10.65;3.12;;;;;;;5.03;84.81;100340.49;3064663;77;20963;-71
2022/01/28 09:03:08;;;;;;;7.97;4.00;;;;;;;5.05;84.89;100338.61;3055848;77;20978;-70
2022/01/28 09:07:10;;;;;;;6.92;2.85;;;;;;;4.98;86.22;100359.20;3035795;78;21600;-70
2022/01/28 09:15:26;;;;;;;12.23;4.80;;;;;;;5.17;84.28;100356.38;3035685;78;20989;-70
2022/01/28 09:19:28;;;;;;;8.98;4.50;;;;;;;5.33;85.13;100380.54;3036064;78;21017;-70
2022/01/28 09:23:30;;;;;;;10.82;4.40;;;;;;;5.35;83.35;100380.81;3036196;77;21020;-70
2022/01/28 09:27:31;;;;;;;17.57;4.05;;;;;;;5.37;84.65;100405.31;3035260;78;21061;-70
2022/01/28 09:31:33;;;;;;;15.85;3.30;;;;;;;5.37;85.14;100407.11;3035166;77;21024;-70
2022/01/28 09:35:35;;;;;;;14.78;3.25;;;;;;;5.51;85.63;100420.36;3034994;78;20986;-70
2022/01/28 09:39:42;;;;;;;12.15;4.45;;;;;;;5.58;83.51;100424.78;3035708;78;21663;-70
2022/01/28 09:43:44;;;;;;;9.75;4.47;;;;;;;5.64;82.52;100430.17;3034845;78;20978;-70
2022/01/28 09:47:51;;;;;;;9.23;4.40;;;;;;;5.70;82.15;100454.42;3035748;78;21033;-70
2022/01/28 09:51:52;;;;;;;;;;;;;;;5.75;82.76;100429.08;3038199;78;20997;-70
2022/01/28 09:55:54;;;;;;;13.08;3.85;;;;;;;5.72;81.79;100472.83;3006900;79;20179;-71
2022/01/28 09:59:56;;;;;;;10.85;3.47;;;;;;;5.82;82.84;100477.09;3007190;79;21104;-69
2022/01/28 10:04:05;;;;;;;12.37;2.92;;;;;;;5.57;82.89;100484.64;3006820;78;20994;-70
2022/01/28 10:08:19;;;;;;;7.25;3.92;;;;;;;5.47;84.43;100490.54;2946452;80;21070;-70
2022/01/28 10:12:36;;;;;;;12.47;3.98;;;;;;;5.47;84.82;100487.41;2974860;80;21026;-70
2022/01/28 10:16:32;;;;;;;19.27;5.67;;;;;;;5.29;86.80;100513.06;3006069;79;21049;-70
2022/01/28 10:20:33;;;;;;;15.70;6.22;;;;;;;5.37;88.12;100517.91;2974427;79;21006;-70
2022/01/28 10:24:35;;;;;;;14.40;8.70;;;;;;;5.27;87.40;100534.23;2975427;80;20958;-70
2022/01/28 10:28:42;;;;;;;11.93;7.22;;;;;;;5.33;86.82;100538.33;3007984;79;20986;-71
2022/01/28 10:32:43;;;;;;;13.20;5.05;;;;;;;5.34;86.51;100537.39;2971715;80;20979;-70
2022/01/28 10:36:48;;;;;;;10.25;4.50;;;;;;;5.37;85.85;100542.98;2975100;80;21092;-71
2022/01/28 10:41:12;;;;;;;9.78;3.72;;;;;;;5.51;84.77;100550.97;2975076;80;21046;-70
2022/01/28 10:45:19;;;;;;;19.48;4.40;;;;;;;5.42;84.48;100541.78;3007732;79;23541;-70
2022/01/28 10:49:28;;;;;;;13.05;3.50;;;;;;;5.43;84.17;100560.64;2975662;80;20967;-70
2022/01/28 10:53:31;;;;;;;4.35;3.55;;;;;;;5.44;82.92;100577.30;2975127;80;20998;-70
2022/01/28 10:57:33;;;;;;;9.23;3.83;;;;;;;5.57;83.01;100581.42;3008182;79;20982;-70
2022/01/28 11:01:34;;;;;;;15.05;4.00;;;;;;;5.59;81.18;100586.14;2975179;79;20935;-70
2022/01/28 11:05:38;;;;;;;14.13;4.95;;;;;;;5.68;81.04;100591.38;2975196;78;21057;-70
2022/01/28 11:09:40;;;;;;;13.15;4.83;;;;;;;5.77;81.18;100593.50;2975720;80;21018;-70
2022/01/28 11:13:43;;;;;;;7.53;4.85;;;;;;;5.71;80.71;100597.82;2975256;80;21053;-70
2022/01/28 11:17:44;;;;;;;9.85;4.40;;;;;;;5.76;79.76;100601.05;2975351;80;21017;-70
2022/01/28 11:22:12;;;;;;;18.25;7.60;;;;;;;5.77;80.14;100601.42;2975235;80;21005;-70
2022/01/28 11:26:39;;;;;;;11.22;4.78;;;;;;;5.85;79.30;100585.15;2975223;80;21049;-70
2022/01/28 11:30:52;;;;;;;8.83;3.02;;;;;;;5.86;77.95;100586.85;2975424;80;21423;-69
2022/01/28 11:35:06;;;;;;;11.08;3.92;;;;;;;5.90;78.78;100581.77;2975526;80;21021;-70
2022/01/28 11:39:35;;;;;;;12.80;5.35;;;;;;;5.88;78.30;100619.75;2975494;80;20962;-70
2022/01/28 11:43:48;;;;;;;17.37;5.17;;;;;;;5.90;78.54;100595.45;2975077;80;21060;-70
2022/01/28 11:47:58;;;;;;;15.43;5.67;;;;;;;5.89;78.60;100597.69;2973437;79;21009;-70
2022/01/28 11:52:05;;;;;;;10.93;5.65;;;;;;;5.90;78.61;100602.06;2975073;80;21025;-70
2022/01/28 11:56:06;;;;;;;9.90;5.30;;;;;;;5.96;78.69;100621.02;2968781;80;21025;-69
2022/01/28 12:00:33;;;;;;;17.80;8.80;;;;;;;6.03;77.72;100629.47;2975482;80;21045;-70
2022/01/28 12:04:40;;;;;;;22.75;11.50;;;;;;;6.04;77.35;100639.58;2975735;78;20998;-70
2022/01/28 12:08:44;;;;;;;11.85;4.75;;;;;;;6.13;76.94;100641.68;2975674;80;20986;-70
2022/01/28 12:12:58;;;;;;;16.62;7.03;;;;;;;6.15;76.62;100649.05;2975409;80;21045;-70
2022/01/28 12:16:57;;;;;;;12.05;5.03;;;;;;;6.17;75.71;100663.50;2974030;80;20994;-70
2022/01/28 12:20:58;;;;;;;17.12;6.87;;;;;;;6.12;75.89;100676.50;2975005;79;21009;-69
2022/01/28 12:24:59;;;;;;;7.83;4.83;;;;;;;6.10;75.31;100667.82;2975754;80;21052;-70
2022/01/28 12:29:04;;;;;;;26.45;15.03;;;;;;;6.09;75.95;100675.36;2975575;80;21582;-70
2022/01/28 12:33:06;;;;;;;79.80;35.35;;;;;;;6.09;75.58;100705.73;2975466;80;21065;-70
2022/01/28 12:37:07;;;;;;;40.45;22.02;;;;;;;6.09;75.85;100695.63;2975470;80;21008;-70
2022/01/28 12:41:15;;;;;;;24.65;11.53;;;;;;;6.05;74.28;100695.42;2946678;80;20997;-69
2022/01/28 12:45:20;;;;;;;40.20;19.92;;;;;;;6.06;74.63;100690.04;2975855;80;21077;-70
2022/01/28 12:49:27;;;;;;;33.48;16.50;;;;;;;6.08;75.00;100717.21;2975721;80;21013;-70
2022/01/28 12:53:42;;;;;;;18.48;7.75;;;;;;;6.08;74.75;100711.09;2975438;80;21024;-70
2022/01/28 12:57:46;;;;;;;18.45;5.12;;;;;;;6.11;74.77;100696.39;2975485;80;20986;-70
2022/01/28 13:01:53;;;;;;;13.72;3.98;;;;;;;6.01;73.94;100722.47;2975563;80;20974;-70
2022/01/28 13:06:02;;;;;;;6.97;4.05;;;;;;;6.13;73.86;100727.53;3001544;78;21043;-70
2022/01/28 13:09:58;;;;;;;14.23;5.80;;;;;;;6.10;73.41;100732.98;2979850;79;21027;-70
2022/01/28 13:14:00;;;;;;;11.38;5.40;;;;;;;6.13;72.96;100732.81;3010179;78;21035;-70
2022/01/28 13:18:04;;;;;;;51.13;24.75;;;;;;;6.11;72.95;100744.80;3010733;79;21031;-69
2022/01/28 13:22:05;;;;;;;51.53;22.65;;;;;;;6.12;73.09;100752.23;3010752;79;21023;-70
2022/01/28 13:26:09;;;;;;;52.15;22.98;;;;;;;6.02;72.51;100763.78;3010893;79;21063;-70
2022/01/28 13:30:14;;;;;;;24.18;9.20;;;;;;;6.11;72.88;100764.61;3010960;78;21016;-70
2022/01/28 13:34:15;;;;;;;15.58;7.92;;;;;;;6.03;73.00;100764.16;3010908;79;21019;-70
2022/01/28 13:38:20;;;;;;;36.42;17.42;;;;;;;6.17;73.93;100774.44;3010731;79;21050;-70
2022/01/28 13:42:23;;;;;;;22.10;9.78;;;;;;;6.09;72.96;100762.98;3010976;79;21008;-70
2022/01/28 13:46:31;;;;;;;18.15;7.45;;;;;;;6.05;72.95;100766.73;3011089;79;20980;-70
2022/01/28 13:50:41;;;;;;;28.47;11.53;;;;;;;6.09;73.32;100774.41;3011155;79;20976;-71
2022/01/28 13:54:44;;;;;;;10.95;4.72;;;;;;;6.14;73.69;100767.08;3077700;77;21480;-70
2022/01/28 13:58:51;;;;;;;12.90;5.65;;;;;;;6.08;74.32;100775.31;3077764;77;20917;-70
2022/01/28 14:02:53;;;;;;;14.47;5.35;;;;;;;5.96;73.75;100776.81;3075878;77;20972;-70
2022/01/28 14:07:19;;;;;;;11.75;4.10;;;;;;;5.86;74.56;100790.16;3065267;77;21496;-70
2022/01/28 14:11:27;;;;;;;11.90;3.87;;;;;;;5.83;74.15;100786.36;3064410;77;20948;-69
2022/01/28 14:15:39;;;;;;;14.78;6.20;;;;;;;5.87;74.63;100765.45;3064758;77;20975;-70
2022/01/28 14:19:39;;;;;;;15.15;5.78;;;;;;;5.92;74.29;100785.02;3062162;77;20956;-69
2022/01/28 14:23:44;;;;;;;11.70;5.25;;;;;;;5.83;74.45;100784.56;2994106;78;20978;-67
2022/01/28 14:27:59;;;;;;;14.15;6.40;;;;;;;5.98;74.36;100800.03;2961289;80;21006;-67
2022/01/28 14:31:51;;;;;;;23.15;5.47;;;;;;;5.98;73.93;100817.19;2958598;80;21041;-67
2022/01/28 14:35:55;;;;;;;10.53;4.97;;;;;;;6.06;73.73;100825.22;2936527;79;21023;-68
2022/01/28 14:39:57;;;;;;;10.85;3.12;;;;;;;6.13;73.99;100844.62;2907422;81;21066;-68
2022/01/28 14:43:59;;;;;;;13.08;5.87;;;;;;;6.11;73.30;100857.06;2907688;81;21069;-67
2022/01/28 14:48:00;;;;;;;15.50;5.25;;;;;;;6.11;73.64;100859.70;2946041;79;21034;-67
2022/01/28 14:52:07;;;;;;;15.15;6.50;;;;;;;6.06;73.47;100877.56;2957258;80;21033;-67
2022/01/28 14:56:06;;;;;;;21.52;8.53;;;;;;;6.12;73.32;100894.42;2945224;79;20998;-67
2022/01/28 15:00:10;;;;;;;14.80;6.45;;;;;;;6.12;73.28;100886.50;2905233;82;21053;-67
2022/01/28 15:04:12;;;;;;;33.28;12.78;;;;;;;6.12;73.55;100906.31;2906361;81;21038;-67
2022/01/28 15:08:13;;;;;;;41.13;18.07;;;;;;;6.10;73.52;100916.11;2926299;81;21007;-67
2022/01/28 15:12:15;;;;;;;49.53;13.70;;;;;;;6.10;73.29;100916.56;2926807;81;21010;-68
2022/01/28 15:16:17;;;;;;;60.38;22.07;;;;;;;6.04;73.60;100928.30;2927352;81;20986;-68
2022/01/28 15:20:18;;;;;;;74.05;24.32;;;;;;;5.95;72.78;100940.64;2926365;81;21006;-67
2022/01/28 15:24:23;;;;;;;29.27;10.75;;;;;;;5.97;72.31;100920.29;2945198;80;21039;-68
2022/01/28 15:28:26;;;;;;;83.25;28.55;;;;;;;5.91;72.13;100944.39;2952745;80;21007;-68
2022/01/28 15:36:46;;;;;;;;;;;;;;;5.92;71.24;100948.73;2956362;80;21070;-70
2022/01/28 15:40:48;;;;;;;75.85;24.90;;;;;;;5.80;71.22;100953.70;2954023;80;20429;-70
2022/01/28 15:44:51;;;;;;;38.92;14.78;;;;;;;5.75;70.67;100966.28;2953993;80;21093;-70
2022/01/28 15:48:57;;;;;;;66.30;26.40;;;;;;;5.56;70.97;100948.73;2953453;80;21082;-70
2022/01/28 15:53:01;;;;;;;58.42;16.30;;;;;;;5.41;71.69;100945.54;2962646;80;21046;-70
2022/01/28 15:57:05;;;;;;;57.85;28.32;;;;;;;5.39;72.44;100973.79;2979231;79;21124;-70
2022/01/28 16:01:08;;;;;;;19.40;9.25;;;;;;;5.25;72.38;100963.44;2979183;80;21013;-70
2022/01/28 16:05:12;;;;;;;12.43;7.58;;;;;;;5.23;72.97;100973.20;2965697;80;21063;-70
2022/01/28 16:09:15;;;;;;;6.33;4.70;;;;;;;5.19;73.16;100965.52;2940216;81;21086;-69
2022/01/28 16:13:41;;;;;;;21.57;3.45;;;;;;;5.17;73.60;100976.16;2939513;80;20967;-70
2022/01/28 16:17:37;;;;;;;11.38;2.85;;;;;;;4.95;74.35;100973.23;2935159;81;21015;-70
2022/01/28 16:21:34;;;;;;;6.30;4.50;;;;;;;4.94;74.75;101001.84;2937974;81;21094;-70
2022/01/28 16:25:36;;;;;;;16.12;3.50;;;;;;;4.86;75.37;101001.33;2888717;81;21086;-70
2022/01/28 16:29:42;;;;;;;19.20;5.42;;;;;;;4.78;75.81;100991.61;2888211;82;20987;-70
2022/01/28 16:33:43;;;;;;;;;;;;;;;4.70;75.78;101009.93;2890909;82;21724;-70
2022/01/28 16:37:45;;;;;;;7.20;3.80;;;;;;;4.76;76.09;101020.66;2951545;80;20119;-68
2022/01/28 16:41:47;;;;;;;10.43;4.58;;;;;;;4.81;75.56;101031.00;2919780;81;21053;-68
2022/01/28 16:45:57;;;;;;;25.77;11.63;;;;;;;4.89;75.58;101034.13;2919180;81;21529;-68
2022/01/28 16:49:59;;;;;;;228.65;91.02;;;;;;;4.97;75.12;101025.42;2919602;81;21026;-68
2022/01/28 16:54:00;;;;;;;122.07;48.25;;;;;;;5.06;74.44;101049.64;2935124;78;20947;-68
2022/01/28 16:58:02;;;;;;;109.50;39.67;;;;;;;5.13;74.53;101058.52;2946482;80;20978;-68
2022/01/28 17:02:08;;;;;;;34.45;12.43;;;;;;;5.21;74.28;101071.80;2945629;80;20975;-68
2022/01/28 17:06:10;;;;;;;144.35;61.18;;;;;;;5.27;74.75;101081.61;2952565;79;20992;-69
2022/01/28 17:10:32;;;;;;;14.40;4.85;;;;;;;5.32;74.54;101084.52;2957664;80;21285;-70
2022/01/28 17:14:16;;;;;;;24.40;8.10;;;;;;;5.22;74.88;101105.19;2958685;80;21027;-70
2022/01/28 17:18:21;;;;;;;88.50;41.48;;;;;;;5.03;74.32;101103.84;2957694;79;21590;-70
2022/01/28 17:22:24;;;;;;;84.97;37.85;;;;;;;5.19;73.67;101098.72;2968346;79;21118;-69
2022/01/28 17:26:25;;;;;;;85.17;41.83;;;;;;;5.10;74.29;101105.27;3006934;79;20968;-69
2022/01/28 17:30:28;;;;;;;60.40;26.57;;;;;;;5.08;74.52;101107.99;3006203;79;21002;-69
2022/01/28 17:34:30;;;;;;;48.63;24.35;;;;;;;4.99;74.04;101122.45;3004833;79;21556;-69
2022/01/28 17:38:33;;;;;;;39.13;23.83;;;;;;;4.97;72.69;101119.03;3072836;77;20999;-69
2022/01/28 17:42:38;;;;;;;42.53;23.42;;;;;;;4.85;71.18;101132.75;3072532;77;21003;-69
2022/01/28 17:46:41;;;;;;;42.85;18.82;;;;;;;4.81;70.68;101147.83;3072485;77;21074;-69
2022/01/28 17:50:44;;;;;;;37.33;19.85;;;;;;;4.72;70.63;101153.52;3071892;77;20948;-69
2022/01/28 17:54:46;;;;;;;15.35;6.70;;;;;;;4.66;70.66;101144.09;3063500;77;20989;-69
2022/01/28 17:58:48;;;;;;;23.55;12.25;;;;;;;4.63;70.61;101158.73;3060896;77;21389;-69
2022/01/28 18:02:50;;;;;;;94.20;45.60;;;;;;;4.54;70.53;101164.41;2994834;79;21039;-69
2022/01/28 18:06:56;;;;;;;36.75;18.05;;;;;;;4.54;70.75;101171.00;3035306;77;21056;-69
2022/01/28 18:10:59;;;;;;;13.13;6.40;;;;;;;4.43;71.80;101183.31;3020166;77;21013;-70
2022/01/28 18:15:04;;;;;;;25.25;11.20;;;;;;;4.38;72.85;101192.70;3021001;78;20986;-69
2022/01/28 18:19:06;;;;;;;13.55;6.72;;;;;;;4.29;72.76;101197.02;3020428;78;20998;-69
2022/01/28 18:23:08;;;;;;;19.98;7.53;;;;;;;4.18;72.15;101212.42;3024409;78;20981;-70
2022/01/28 18:27:10;;;;;;;12.88;5.55;;;;;;;4.17;69.32;101214.19;3030568;78;21032;-69
2022/01/28 18:31:14;;;;;;;17.73;10.80;;;;;;;4.16;67.87;101234.86;3030317;78;20970;-69
2022/01/28 18:35:19;;;;;;;18.87;10.20;;;;;;;4.17;67.41;101221.24;2966690;79;21026;-68
2022/01/28 18:39:22;;;;;;;20.40;11.80;;;;;;;4.16;67.61;101234.02;2967501;78;21057;-68
2022/01/28 18:43:34;;;;;;;13.28;7.25;;;;;;;4.12;69.48;101243.33;2967330;79;21006;-68
2022/01/28 18:47:34;;;;;;;8.20;4.95;;;;;;;4.04;70.70;101244.09;3001966;79;21310;-69
2022/01/28 18:51:39;;;;;;;;;;;;;;;3.94;72.34;101250.66;3004853;79;21061;-67
2022/01/28 18:55:43;;;;;;;7.08;4.83;;;;;;;3.94;72.63;101253.29;3002170;79;20147;-68
2022/01/28 18:59:48;;;;;;;52.38;22.93;;;;;;;3.76;72.78;101263.59;3002403;78;20991;-67
2022/01/28 19:03:51;;;;;;;115.72;57.05;;;;;;;3.78;72.81;101253.87;3003160;79;21045;-67
2022/01/28 19:07:54;;;;;;;29.25;13.53;;;;;;;3.78;73.39;101268.34;2998807;78;21033;-68
2022/01/28 19:11:57;;;;;;;15.90;10.20;;;;;;;3.73;74.47;101286.06;3072674;77;21012;-67
2022/01/28 19:16:00;;;;;;;19.48;9.95;;;;;;;3.70;75.23;101287.05;3072915;77;21003;-67
2022/01/28 19:20:04;;;;;;;25.43;16.02;;;;;;;3.62;76.12;101286.45;3072929;77;21026;-68
2022/01/28 19:24:07;;;;;;;14.28;8.08;;;;;;;3.54;77.29;101290.71;3055509;77;21057;-68
2022/01/28 19:28:09;;;;;;;22.32;10.13;;;;;;;3.53;78.37;101304.75;3045313;77;20999;-67
2022/01/28 19:32:12;;;;;;;15.13;7.80;;;;;;;3.44;79.58;101309.04;3045202;78;21014;-68
2022/01/28 19:36:14;;;;;;;15.85;8.70;;;;;;;3.38;80.44;101319.78;3045173;78;21027;-67
2022/01/28 19:40:17;;;;;;;18.17;9.05;;;;;;;3.28;81.40;101317.94;3044952;78;21062;-68
2022/01/28 19:44:18;;;;;;;22.42;8.38;;;;;;;3.32;81.69;101319.54;3045191;78;21030;-69
2022/01/28 19:48:21;;;;;;;17.98;8.75;;;;;;;3.32;81.87;101331.81;3044821;78;21034;-69
2022/01/28 19:52:23;;;;;;;16.50;7.70;;;;;;;3.34;82.04;101324.73;3044895;76;21023;-69
2022/01/28 19:56:24;;;;;;;24.75;8.08;;;;;;;3.35;82.18;101330.42;3044851;78;21008;-69
2022/01/28 20:00:26;;;;;;;26.48;9.83;;;;;;;3.35;82.33;101335.69;3044024;77;20959;-70
2022/01/28 20:04:28;;;;;;;37.25;17.87;;;;;;;3.32;82.64;101346.28;3044632;78;20991;-69
2022/01/28 20:08:29;;;;;;;52.55;28.55;;;;;;;3.42;82.17;101345.06;3049269;78;21015;-69
2022/01/28 20:12:31;;;;;;;18.70;10.03;;;;;;;3.37;82.16;101358.84;3049970;78;21586;-69
2022/01/28 20:16:33;;;;;;;24.27;8.33;;;;;;;3.40;81.64;101349.52;3050257;78;20963;-69
2022/01/28 20:20:34;;;;;;;21.45;10.65;;;;;;;3.35;81.12;101356.72;3050158;77;20995;-69
2022/01/28 20:24:36;;;;;;;9.85;4.10;;;;;;;3.34;79.00;101355.84;3074415;76;21013;-70
2022/01/28 20:28:38;;;;;;;14.70;6.40;;;;;;;3.29;76.11;101363.05;3082149;77;20937;-69
2022/01/28 20:32:39;;;;;;;61.28;30.62;;;;;;;3.25;74.32;101372.80;3081280;77;20991;-69
2022/01/28 20:36:41;;;;;;;84.25;43.98;;;;;;;3.23;73.99;101365.42;3081446;77;21479;-69